Time;durP1;ratioP1;P1;durP2;ratioP2;P2;SDS_P1;SDS_P2;PMS_P1;PMS_P2;Temp;Humidity;BMP_temperature;BMP_pressure;BME280_temperature;BME280_humidity;BME280_pressure;Samples;Min_cycle;Max_cycle;Signal;HPM_P1;HPM_P2
2022/11/16 00:01:31;;;;;;;18.30;10.60;;;;;;;20.13;44.38;100459.72;1777769;79;21039;-80
2022/11/16 00:03:58;;;;;;;19.02;10.82;;;;;;;20.12;44.37;100457.52;1772624;79;21006;-81
2022/11/16 00:06:25;;;;;;;16.55;9.95;;;;;;;20.13;44.36;100459.72;1791475;79;22172;-80
2022/11/16 00:11:39;;;;;;;15.10;9.70;;;;;;;20.13;44.29;100448.67;1781248;79;21611;-81
2022/11/16 00:14:06;;;;;;;15.70;10.18;;;;;;;20.11;44.28;100449.58;1768180;79;21029;-80
2022/11/16 00:16:32;;;;;;;18.95;10.85;;;;;;;20.11;44.26;100442.67;1766999;79;21050;-80
2022/11/16 00:19:02;;;;;;;16.48;10.65;;;;;;;20.09;44.23;100437.46;1776782;79;21614;-80
2022/11/16 00:21:28;;;;;;;16.07;10.15;;;;;;;20.09;44.22;100431.94;1767931;79;21921;-80
2022/11/16 00:23:55;;;;;;;17.87;10.53;;;;;;;20.10;44.21;100432.19;1768427;79;21014;-80
2022/11/16 00:26:22;;;;;;;18.98;11.28;;;;;;;20.10;44.19;100430.81;1777659;79;21681;-80
2022/11/16 00:28:48;;;;;;;17.57;10.72;;;;;;;20.10;44.14;100421.70;1768773;79;21026;-80
2022/11/16 00:31:14;;;;;;;19.00;10.50;;;;;;;20.08;44.11;100431.13;1778021;79;21018;-80
2022/11/16 00:33:41;;;;;;;16.10;10.55;;;;;;;20.08;44.09;100425.59;1767225;79;21916;-80
2022/11/16 00:36:10;;;;;;;17.07;10.68;;;;;;;20.08;44.07;100415.93;1779268;79;21042;-80
2022/11/16 00:38:37;;;;;;;17.32;10.95;;;;;;;20.08;44.08;100413.73;1771839;79;21093;-80
2022/11/16 00:41:03;;;;;;;18.15;11.15;;;;;;;20.08;44.05;100413.73;1774171;79;21023;-80
2022/11/16 00:43:30;;;;;;;16.32;10.55;;;;;;;20.07;44.02;100426.73;1769933;79;21031;-80
2022/11/16 00:45:56;;;;;;;18.57;10.80;;;;;;;20.07;43.99;100418.44;1794633;79;21034;-81
2022/11/16 00:48:23;;;;;;;19.52;10.70;;;;;;;20.07;43.96;100416.28;1785939;79;21088;-80
2022/11/16 00:50:49;;;;;;;16.37;10.48;;;;;;;20.06;43.92;100405.80;1777796;79;21055;-80
2022/11/16 00:53:17;;;;;;;17.92;11.10;;;;;;;20.06;43.88;100403.03;1782262;79;21097;-80
2022/11/16 00:55:44;;;;;;;16.30;11.00;;;;;;;20.06;43.90;100400.84;1792164;79;21046;-81
2022/11/16 00:58:11;;;;;;;16.60;10.95;;;;;;;20.06;43.88;100392.55;1800197;79;21132;-80
2022/11/16 01:00:39;;;;;;;18.02;9.70;;;;;;;20.05;43.87;100391.73;1788384;79;20966;-80
2022/11/16 01:03:05;;;;;;;16.40;10.38;;;;;;;20.05;43.88;100384.02;1779213;79;20967;-80
2022/11/16 01:05:33;;;;;;;16.87;10.85;;;;;;;20.04;43.87;100374.09;1788343;79;37748;-80
2022/11/16 01:07:59;;;;;;;18.23;11.18;;;;;;;20.04;43.86;100374.91;1774586;79;21535;-80
2022/11/16 01:10:26;;;;;;;16.10;9.90;;;;;;;20.03;43.84;100374.66;1778943;79;22033;-80
2022/11/16 01:12:52;;;;;;;17.12;10.15;;;;;;;20.04;43.84;100363.05;1788479;79;21009;-80
2022/11/16 01:15:20;;;;;;;18.10;10.25;;;;;;;20.03;43.83;100360.03;1785095;79;21100;-80
2022/11/16 01:17:46;;;;;;;17.05;10.25;;;;;;;20.02;43.82;100356.49;1803296;79;21097;-80
2022/11/16 01:20:16;;;;;;;20.02;11.83;;;;;;;20.03;43.81;100350.38;1796683;79;21104;-80
2022/11/16 01:22:43;;;;;;;16.12;9.93;;;;;;;20.02;43.77;100346.83;1806188;78;21759;-80
2022/11/16 01:25:10;;;;;;;19.45;11.20;;;;;;;20.02;43.76;100348.20;1796111;79;21022;-80
2022/11/16 01:27:37;;;;;;;17.80;11.10;;;;;;;20.01;43.75;100337.48;1781486;79;21463;-80
2022/11/16 01:30:06;;;;;;;19.15;11.22;;;;;;;20.00;43.74;100335.28;1791986;79;21051;-80
2022/11/16 01:32:32;;;;;;;19.40;10.68;;;;;;;20.00;43.72;100335.28;1774202;80;21648;-80
2022/11/16 01:34:59;;;;;;;19.02;11.63;;;;;;;20.00;43.71;100333.08;1783977;79;21804;-80
2022/11/16 01:37:26;;;;;;;17.48;10.18;;;;;;;19.99;43.71;100329.50;1782760;79;21042;-80
2022/11/16 01:39:52;;;;;;;19.55;11.22;;;;;;;19.99;43.73;100328.69;1792157;79;21698;-80
2022/11/16 01:42:25;;;;;;;17.45;10.63;;;;;;;19.99;43.75;100328.69;1779333;79;21049;-80
2022/11/16 01:45:00;;;;;;;17.35;10.53;;;;;;;19.98;43.72;100322.38;1791805;79;21670;-80
2022/11/16 01:47:26;;;;;;;18.55;11.35;;;;;;;19.98;43.72;100321.56;1805937;79;21110;-80
2022/11/16 01:50:01;;;;;;;17.05;10.53;;;;;;;19.97;43.70;100317.98;1776858;79;21053;-80
2022/11/16 01:52:30;;;;;;;18.75;10.80;;;;;;;19.96;43.71;100314.98;1786124;79;21040;-80
2022/11/16 01:54:56;;;;;;;19.50;11.05;;;;;;;19.96;43.69;100320.50;1727631;81;20988;-80
2022/11/16 01:57:28;;;;;;;18.62;11.08;;;;;;;19.96;43.67;100326.02;1728764;81;21520;-80
2022/11/16 01:59:57;;;;;;;20.80;11.85;;;;;;;19.95;43.67;100318.05;1728283;82;21861;-80
2022/11/16 02:02:23;;;;;;;19.10;10.58;;;;;;;19.96;43.64;100322.44;1713236;82;21007;-80
2022/11/16 02:04:51;;;;;;;20.20;11.00;;;;;;;19.95;43.61;100311.97;1722480;82;21103;-80
2022/11/16 02:10:51;;;;;;;20.10;12.18;;;;;;;19.95;43.59;100309.77;1730635;82;21078;-80
2022/11/16 02:13:52;;;;;;;22.05;11.80;;;;;;;19.94;43.53;100306.79;1727792;82;21143;-80
2022/11/16 02:16:39;;;;;;;23.22;12.68;;;;;;;19.93;43.54;100305.16;1730232;82;27116;-80
2022/11/16 02:19:29;;;;;;;17.67;10.75;;;;;;;19.92;43.49;100306.28;1708035;83;21485;-80
2022/11/16 02:22:26;;;;;;;23.27;11.90;;;;;;;19.91;43.48;100303.27;1710802;82;21232;-80
2022/11/16 02:25:24;;;;;;;19.52;11.55;;;;;;;19.90;43.47;100294.77;1722329;82;21113;-80
2022/11/16 02:28:34;;;;;;;18.52;11.18;;;;;;;19.88;43.47;100295.09;1710676;82;21187;-80
2022/11/16 02:31:08;;;;;;;21.77;11.33;;;;;;;19.88;43.50;100287.37;1722813;82;21058;-80
2022/11/16 02:33:37;;;;;;;22.45;10.82;;;;;;;19.87;43.50;100290.70;1723029;83;21005;-80
2022/11/16 02:36:05;;;;;;;21.33;11.63;;;;;;;19.87;43.49;100282.41;1717394;82;21580;-80
2022/11/16 02:38:34;;;;;;;21.20;11.83;;;;;;;19.87;43.49;100277.45;1718957;82;21062;-80
2022/11/16 02:41:06;;;;;;;19.05;10.58;;;;;;;19.86;43.49;100280.00;1716458;82;21193;-80
2022/11/16 02:43:45;;;;;;;21.97;12.05;;;;;;;19.86;43.46;100280.78;1718733;82;22264;-80
2022/11/16 02:46:28;;;;;;;21.07;12.05;;;;;;;19.86;43.46;100277.23;1726170;82;21098;-80
2022/11/16 02:48:57;;;;;;;21.30;11.55;;;;;;;19.86;43.45;100279.40;1719350;82;21094;-80
2022/11/16 02:51:23;;;;;;;21.25;11.18;;;;;;;19.86;43.45;100268.36;1727523;82;21047;-81
2022/11/16 02:54:12;;;;;;;24.15;12.18;;;;;;;19.86;43.45;100265.59;1747892;79;21131;-80
2022/11/16 02:56:56;;;;;;;20.43;11.28;;;;;;;19.86;43.46;100264.22;1763787;80;21105;-80
2022/11/16 02:59:27;;;;;;;21.07;11.75;;;;;;;19.85;43.46;100264.00;1780853;79;21038;-80
2022/11/16 03:02:21;;;;;;;20.00;11.75;;;;;;;19.85;43.46;100263.19;1764456;79;21543;-80
2022/11/16 03:04:51;;;;;;;18.82;10.28;;;;;;;19.85;43.48;100262.62;1778163;79;21015;-80
2022/11/16 03:07:22;;;;;;;22.37;12.00;;;;;;;19.84;43.46;100249.94;1767040;78;21861;-80
2022/11/16 03:09:48;;;;;;;;;;;;;;;19.84;43.45;100249.12;1780753;79;21023;-80
2022/11/16 03:12:17;;;;;;;24.00;11.35;;;;;;;19.83;43.43;100248.88;1785006;79;20188;-80
2022/11/16 03:14:53;;;;;;;22.13;12.03;;;;;;;19.82;43.46;100259.10;1778619;79;21033;-80
2022/11/16 03:17:31;;;;;;;23.10;11.75;;;;;;;19.82;43.43;100254.15;1753243;79;21090;-80
2022/11/16 03:20:14;;;;;;;23.80;11.55;;;;;;;19.82;43.40;100250.01;1775822;79;21525;-80
2022/11/16 03:22:49;;;;;;;19.65;11.85;;;;;;;19.82;43.40;100247.25;1795529;79;21515;-80
2022/11/16 03:25:18;;;;;;;24.82;13.22;;;;;;;19.81;43.40;100239.56;1774800;78;21097;-80
2022/11/16 03:28:04;;;;;;;23.22;12.07;;;;;;;19.81;43.40;100239.56;1795402;79;21022;-81
2022/11/16 03:30:33;;;;;;;22.37;12.23;;;;;;;19.80;43.38;100232.41;1784405;79;21077;-80
2022/11/16 03:33:16;;;;;;;22.17;12.05;;;;;;;19.79;43.36;100228.02;1788876;79;21059;-80
2022/11/16 03:36:06;;;;;;;20.30;10.72;;;;;;;19.80;43.37;100225.51;1778426;79;21437;-80
2022/11/16 03:38:33;;;;;;;22.77;12.75;;;;;;;19.80;43.40;100231.03;1786344;79;21067;-80
2022/11/16 03:41:08;;;;;;;23.60;12.58;;;;;;;19.80;43.39;100226.08;1771024;79;21043;-80
2022/11/16 03:43:35;;;;;;;23.27;11.57;;;;;;;19.82;43.37;100216.31;1781742;79;21512;-81
2022/11/16 03:46:01;;;;;;;23.32;12.07;;;;;;;19.84;43.35;100207.16;1764122;79;21526;-80
2022/11/16 03:48:35;;;;;;;20.20;10.75;;;;;;;19.88;43.33;100203.17;1785421;79;21245;-81
2022/11/16 03:51:01;;;;;;;20.90;10.93;;;;;;;19.92;43.31;100200.80;1764395;79;21058;-81
2022/11/16 03:53:28;;;;;;;17.25;10.00;;;;;;;19.97;43.29;100194.30;1769885;79;21156;-81
2022/11/16 03:55:54;;;;;;;20.20;10.55;;;;;;;20.04;43.28;100193.22;1757376;80;21054;-81
2022/11/16 03:58:21;;;;;;;16.77;10.05;;;;;;;20.10;43.27;100180.06;1756116;79;21781;-81
2022/11/16 04:00:47;;;;;;;18.75;10.10;;;;;;;20.17;43.23;100183.94;1785230;79;21062;-81
2022/11/16 04:03:13;;;;;;;18.73;10.40;;;;;;;20.25;43.18;100176.19;1793047;79;20959;-81
2022/11/16 04:24:37;;;;;;;17.35;9.20;;;;;;;21.03;42.44;100143.47;1700204;83;21644;-80
2022/11/16 04:29:53;;;;;;;17.23;9.48;;;;;;;21.22;42.26;100136.91;1794220;79;21109;-80
2022/11/16 04:37:51;;;;;;;18.48;10.10;;;;;;;21.52;41.95;100140.39;1784360;79;21188;-79
2022/11/16 04:40:22;;;;;;;17.57;9.85;;;;;;;21.62;41.83;100140.56;1799888;79;21425;-81
2022/11/16 04:42:59;;;;;;;17.55;9.43;;;;;;;21.70;41.75;100144.63;1794981;79;21025;-81
2022/11/16 04:48:12;;;;;;;20.65;10.38;;;;;;;21.82;41.55;100152.97;1796614;79;21093;-81
2022/11/16 04:50:39;;;;;;;17.48;9.65;;;;;;;21.90;41.47;100151.25;1776430;79;21281;-80
2022/11/16 04:53:06;;;;;;;19.57;10.88;;;;;;;21.94;41.41;100138.38;1785501;79;21546;-80
2022/11/16 04:55:32;;;;;;;18.45;9.20;;;;;;;22.01;41.34;100146.14;1785242;80;21130;-80
2022/11/16 04:57:59;;;;;;;17.17;9.80;;;;;;;22.04;41.27;100143.48;1776645;80;21031;-81
2022/11/16 05:00:25;;;;;;;18.92;10.95;;;;;;;22.10;41.23;100139.92;1776145;80;21051;-80
2022/11/16 05:02:52;;;;;;;20.55;10.90;;;;;;;22.15;41.12;100132.18;1787165;80;22040;-81
2022/11/16 05:05:18;;;;;;;18.00;10.00;;;;;;;22.21;41.03;100124.47;1777109;80;21074;-80
2022/11/16 05:07:45;;;;;;;18.67;10.15;;;;;;;22.26;40.96;100129.78;1761399;80;21035;-80
2022/11/16 05:10:12;;;;;;;18.62;9.65;;;;;;;22.29;40.91;100127.12;1774571;79;21066;-80
2022/11/16 05:12:38;;;;;;;21.45;11.22;;;;;;;22.33;40.84;100128.05;1785150;80;21014;-80
2022/11/16 05:15:06;;;;;;;20.10;10.50;;;;;;;22.37;40.80;100127.35;1769341;80;22125;-80
2022/11/16 05:17:32;;;;;;;19.27;10.65;;;;;;;22.41;40.77;100137.98;1755427;80;21055;-81
2022/11/16 05:22:44;;;;;;;18.77;10.58;;;;;;;22.48;40.67;100127.95;1782563;80;21035;-81
2022/11/16 05:25:11;;;;;;;19.48;10.85;;;;;;;22.52;40.62;100126.69;1770552;80;21102;-81
2022/11/16 05:27:37;;;;;;;18.65;10.68;;;;;;;22.55;40.59;100132.34;1781039;80;21583;-81
2022/11/16 05:30:05;;;;;;;22.32;11.40;;;;;;;22.57;40.56;100132.00;1783680;80;21369;-81
2022/11/16 05:32:31;;;;;;;20.20;11.08;;;;;;;22.58;40.55;100125.28;1772860;80;20990;-81
2022/11/16 05:34:57;;;;;;;22.87;11.73;;;;;;;22.61;40.49;100125.98;1774091;80;21059;-81
2022/11/16 05:37:25;;;;;;;24.98;11.88;;;;;;;22.61;40.37;100118.48;1770274;80;21042;-84
2022/11/16 05:39:53;;;;;;;27.82;14.00;;;;;;;22.60;40.30;100116.05;1755389;81;21587;-82
2022/11/16 05:42:20;;;;;;;29.65;15.23;;;;;;;22.58;40.19;100108.64;1769868;80;21095;-81
2022/11/16 05:44:46;;;;;;;32.03;14.25;;;;;;;22.56;40.09;100115.94;1785267;79;21054;-82
2022/11/16 05:47:13;;;;;;;33.53;15.88;;;;;;;22.56;39.99;100117.33;1782157;79;21294;-83
2022/11/16 05:49:39;;;;;;;37.50;16.37;;;;;;;22.54;39.89;100109.92;1778811;78;21060;-84
2022/11/16 05:52:05;;;;;;;33.00;16.37;;;;;;;22.53;39.79;100113.84;1755354;80;21135;-86
2022/11/16 05:54:32;;;;;;;34.67;15.23;;;;;;;22.53;39.72;100108.90;1759089;81;21117;-82
2022/11/16 05:56:58;;;;;;;29.77;14.90;;;;;;;22.51;39.72;100110.63;1754895;81;21098;-83
2022/11/16 05:59:26;;;;;;;43.42;17.27;;;;;;;22.50;39.74;100109.00;1769803;79;21088;-81
2022/11/16 06:01:52;;;;;;;42.67;17.00;;;;;;;22.51;39.61;100112.01;1773961;79;21117;-79
2022/11/16 06:04:19;;;;;;;49.48;18.70;;;;;;;22.53;39.72;100119.98;1779778;79;21104;-80
2022/11/16 06:06:45;;;;;;;39.95;17.50;;;;;;;22.52;39.71;100126.11;1772181;79;21568;-81
2022/11/16 06:09:12;;;;;;;37.67;18.17;;;;;;;22.53;39.66;100122.77;1772960;78;21734;-83
2022/11/16 06:11:39;;;;;;;37.17;16.10;;;;;;;22.51;39.55;100117.55;1772613;79;21016;-80
2022/11/16 06:14:05;;;;;;;39.95;16.62;;;;;;;22.50;39.56;100115.12;1719404;82;21086;-78
2022/11/16 06:16:32;;;;;;;31.23;16.32;;;;;;;22.50;39.64;100117.31;1730637;82;21567;-78
2022/11/16 06:18:58;;;;;;;37.45;15.25;;;;;;;22.51;39.67;100116.17;1716823;82;21065;-78
2022/11/16 06:21:25;;;;;;;33.55;16.97;;;;;;;22.52;39.72;100106.70;1721344;81;21037;-80
2022/11/16 06:23:51;;;;;;;31.55;14.73;;;;;;;22.52;39.77;100115.59;1708288;82;21067;-79
2022/11/16 06:26:17;;;;;;;34.00;15.00;;;;;;;22.53;39.80;100101.36;1746534;81;21128;-80
2022/11/16 06:28:44;;;;;;;29.02;14.80;;;;;;;22.54;39.82;100094.67;1703587;81;21169;-81
2022/11/16 06:31:17;;;;;;;38.92;16.02;;;;;;;22.55;39.85;100094.09;1719733;82;21076;-81
2022/11/16 06:33:43;;;;;;;33.95;15.15;;;;;;;22.54;39.88;100088.31;1737007;81;21045;-80
2022/11/16 06:36:10;;;;;;;32.75;15.03;;;;;;;22.54;39.91;100072.50;1714134;81;21093;-79
2022/11/16 06:38:36;;;;;;;34.43;15.60;;;;;;;22.54;39.92;100068.34;1724243;81;21053;-80
2022/11/16 06:41:02;;;;;;;30.97;14.38;;;;;;;22.55;39.92;100072.73;1707565;83;21146;-78
2022/11/16 06:43:29;;;;;;;35.38;14.68;;;;;;;22.55;39.97;100065.80;1726361;81;21089;-80
2022/11/16 06:45:57;;;;;;;30.05;14.78;;;;;;;22.57;39.97;100077.94;1720517;81;21107;-81
2022/11/16 06:48:23;;;;;;;33.45;14.85;;;;;;;22.57;39.99;100082.91;1713854;82;21024;-77
2022/11/16 06:50:55;;;;;;;33.58;14.70;;;;;;;22.58;40.02;100084.50;1722192;81;21562;-79
2022/11/16 06:53:19;;;;;;;36.42;15.72;;;;;;;22.59;40.10;100073.65;1682483;83;21143;-79
2022/11/16 06:55:45;;;;;;;31.40;13.80;;;;;;;22.61;40.19;100073.31;1723071;80;121125;-86
2022/11/16 06:58:12;;;;;;;38.05;15.30;;;;;;;22.62;40.29;100074.33;1712787;82;21081;-84
2022/11/16 07:00:58;;;;;;;36.95;14.75;;;;;;;22.63;40.54;100075.14;1712401;81;21155;-89
2022/11/16 07:03:44;;;;;;;42.00;14.35;;;;;;;22.64;40.69;100076.19;1709813;82;21597;-86
2022/11/16 07:06:11;;;;;;;38.98;14.43;;;;;;;22.66;40.87;100078.02;1711447;82;21979;-86
2022/11/16 07:08:38;;;;;;;42.23;13.72;;;;;;;22.68;40.95;100072.95;1685642;82;21062;-86
2022/11/16 07:11:05;;;;;;;32.05;13.72;;;;;;;22.70;41.03;100083.73;1683156;83;21118;-86
2022/11/16 07:13:33;;;;;;;28.98;13.78;;;;;;;22.70;41.12;100080.35;1653122;85;21081;-83
2022/11/16 07:16:04;;;;;;;33.08;13.08;;;;;;;22.70;41.24;100072.03;1681129;83;21347;-84
2022/11/16 07:18:34;;;;;;;37.53;15.68;;;;;;;22.70;41.32;100066.48;1680496;83;21573;-83
2022/11/16 07:21:11;;;;;;;34.58;14.58;;;;;;;22.71;41.38;100068.11;1681249;83;21170;-85
2022/11/16 07:23:37;;;;;;;37.63;15.10;;;;;;;22.73;41.45;100067.77;1680660;83;21097;-85
2022/11/16 07:26:04;;;;;;;30.68;14.43;;;;;;;22.73;41.51;100060.27;1689604;83;21479;-85
2022/11/16 07:28:34;;;;;;;30.97;14.28;;;;;;;22.73;41.54;100060.84;1674471;83;21165;-86
2022/11/16 07:31:08;;;;;;;37.17;17.00;;;;;;;22.73;41.50;100060.27;1682541;83;21968;-84
2022/11/16 07:33:34;;;;;;;30.52;15.70;;;;;;;22.73;41.51;100064.42;1679397;83;21664;-83
2022/11/16 07:36:10;;;;;;;40.52;17.60;;;;;;;22.75;41.47;100066.83;1682312;83;21057;-86
2022/11/16 07:38:37;;;;;;;33.05;17.32;;;;;;;22.75;41.36;100060.70;1675152;83;21117;-84
2022/11/16 07:41:10;;;;;;;37.30;17.60;;;;;;;22.76;41.27;100068.45;1692167;83;21143;-83
2022/11/16 07:43:37;;;;;;;31.12;16.42;;;;;;;22.76;41.20;100063.72;1686458;83;22874;-84
2022/11/16 07:46:10;;;;;;;35.25;18.25;;;;;;;22.76;41.09;100059.56;1677974;83;21208;-86
2022/11/16 07:48:37;;;;;;;33.98;17.05;;;;;;;22.78;40.84;100058.41;1681442;83;21082;-82
2022/11/16 07:51:08;;;;;;;41.75;17.98;;;;;;;22.78;40.65;100052.86;1681086;83;21079;-85
2022/11/16 07:53:35;;;;;;;34.23;16.95;;;;;;;22.79;40.59;100052.48;1683912;83;21096;-84
2022/11/16 07:56:02;;;;;;;37.42;17.10;;;;;;;22.77;40.68;100060.37;1652969;84;22258;-82
2022/11/16 07:58:29;;;;;;;37.42;16.62;;;;;;;22.75;40.89;100052.39;1634923;85;21532;-83
2022/11/16 08:01:13;;;;;;;35.23;16.15;;;;;;;22.76;41.25;100058.75;1624035;85;21016;-86
2022/11/16 08:03:40;;;;;;;43.95;15.88;;;;;;;22.77;41.34;100047.89;1682022;83;21128;-86
2022/11/16 08:06:14;;;;;;;49.13;16.40;;;;;;;22.75;41.60;100044.64;1632949;84;21102;-87
2022/11/16 08:08:46;;;;;;;47.55;14.68;;;;;;;22.78;41.79;100053.67;1655609;84;21162;-85
2022/11/16 08:11:13;;;;;;;31.62;15.80;;;;;;;22.83;41.89;100046.47;1689243;83;21115;-87
2022/11/16 08:13:39;;;;;;;35.03;14.30;;;;;;;22.90;41.94;100051.44;1684778;83;21049;-86
2022/11/16 08:16:16;;;;;;;33.90;15.53;;;;;;;22.96;41.96;100050.02;1686718;83;21063;-86
2022/11/16 08:18:43;;;;;;;31.87;14.95;;;;;;;23.00;41.99;100046.80;1692936;83;21069;-86
2022/11/16 08:21:14;;;;;;;30.57;14.58;;;;;;;23.02;42.01;100048.05;1683188;83;22009;-85
2022/11/16 08:23:54;;;;;;;34.55;16.15;;;;;;;23.03;42.06;100050.25;1681764;83;21132;-85
2022/11/16 08:26:21;;;;;;;39.58;16.77;;;;;;;23.04;42.02;100038.00;1681767;83;21087;-87
2022/11/16 08:28:50;;;;;;;43.80;16.87;;;;;;;23.04;42.01;100034.61;1685781;83;21065;-87
2022/11/16 08:31:19;;;;;;;37.15;16.30;;;;;;;23.02;41.97;100033.36;1682846;83;21137;-86
2022/11/16 08:33:46;;;;;;;33.17;16.93;;;;;;;23.00;41.94;100035.70;1677252;83;21578;-85
2022/11/16 08:36:16;;;;;;;36.48;16.73;;;;;;;22.98;41.91;100035.23;1682076;83;21108;-85
2022/11/16 08:38:43;;;;;;;44.80;17.02;;;;;;;22.95;41.90;100035.94;1683681;83;21533;-86
2022/11/16 08:41:09;;;;;;;37.88;18.23;;;;;;;22.90;41.89;100028.67;1689556;83;21053;-84
2022/11/16 08:43:38;;;;;;;37.88;17.95;;;;;;;22.87;41.84;100026.61;1686495;82;21098;-87
2022/11/16 08:46:06;;;;;;;36.05;19.23;;;;;;;22.83;41.85;100031.22;1685268;83;21788;-86
2022/11/16 08:48:39;;;;;;;39.27;18.17;;;;;;;22.79;41.80;100022.59;1692762;83;21098;-86
2022/11/16 08:51:13;;;;;;;37.55;16.75;;;;;;;22.76;42.13;100023.51;1676462;83;21726;-84
2022/11/16 08:53:40;;;;;;;44.18;17.70;;;;;;;22.72;42.72;100026.75;1677772;83;21046;-83
2022/11/16 08:56:12;;;;;;;43.08;18.15;;;;;;;22.66;43.38;100017.02;1687056;83;21347;-84
2022/11/16 08:58:41;;;;;;;51.00;18.90;;;;;;;22.63;43.48;100012.19;1680535;83;21112;-82
2022/11/16 09:01:13;;;;;;;44.35;16.87;;;;;;;22.61;43.95;100018.67;1681835;83;21740;-85
2022/11/16 09:03:40;;;;;;;52.35;20.00;;;;;;;22.54;44.07;100016.23;1684876;83;21092;-85
2022/11/16 09:06:07;;;;;;;47.48;17.40;;;;;;;22.47;44.33;100008.53;1656129;83;21116;-87
2022/11/16 09:08:41;;;;;;;46.18;18.20;;;;;;;22.43;44.28;100009.57;1684581;83;21834;-85
2022/11/16 09:11:10;;;;;;;44.90;18.55;;;;;;;22.37;44.24;100006.22;1693982;83;21368;-87
2022/11/16 09:13:37;;;;;;;44.45;18.17;;;;;;;22.33;44.21;99999.77;1681107;83;21167;-86
2022/11/16 09:16:06;;;;;;;50.90;20.82;;;;;;;22.31;44.21;99997.94;1683312;83;21142;-87
2022/11/16 09:18:34;;;;;;;44.33;20.67;;;;;;;22.31;44.16;99999.31;1691101;83;21564;-87
2022/11/16 09:21:01;;;;;;;48.55;20.17;;;;;;;22.29;44.15;99984.41;1639203;83;21062;-82
2022/11/16 09:23:27;;;;;;;43.42;19.80;;;;;;;22.26;44.11;99983.73;1681312;83;21535;-87
2022/11/16 09:25:57;;;;;;;47.93;21.82;;;;;;;22.25;44.05;99983.50;1665850;84;21065;-87
2022/11/16 09:28:23;;;;;;;53.17;22.75;;;;;;;22.23;44.01;99984.44;1680013;84;21093;-85
2022/11/16 09:30:53;;;;;;;69.03;26.97;;;;;;;22.19;43.94;99980.72;1681522;83;21048;-81
2022/11/16 09:33:19;;;;;;;58.92;23.77;;;;;;;22.15;43.95;99967.34;1667346;83;21080;-83
2022/11/16 09:35:45;;;;;;;54.18;25.72;;;;;;;22.13;43.96;99967.47;1664619;84;22117;-89
2022/11/16 09:38:15;;;;;;;53.55;26.70;;;;;;;22.10;44.00;99968.98;1681653;84;21086;-86
2022/11/16 09:40:44;;;;;;;57.43;26.65;;;;;;;22.08;44.02;99964.35;1679556;83;21105;-86
2022/11/16 09:43:53;;;;;;;58.23;22.70;;;;;;;22.07;44.06;99968.27;1688139;83;21054;-88
2022/11/16 09:46:28;;;;;;;53.08;22.20;;;;;;;22.05;44.95;99962.86;1682093;83;21674;-87
2022/11/16 09:48:56;;;;;;;54.03;21.77;;;;;;;22.01;45.12;99955.02;1691308;83;21392;-81
2022/11/16 09:51:31;;;;;;;53.38;22.55;;;;;;;21.91;45.52;99956.25;1683079;83;21871;-83
2022/11/16 09:54:02;;;;;;;47.17;23.12;;;;;;;21.80;45.38;99944.84;1685693;83;21124;-88
2022/11/16 09:56:34;;;;;;;47.50;22.13;;;;;;;21.66;45.32;99949.91;1687259;83;21269;-83
2022/11/16 09:59:26;;;;;;;54.80;22.40;;;;;;;21.56;45.45;99944.81;1680006;83;21124;-84
2022/11/16 10:02:13;;;;;;;53.15;22.15;;;;;;;21.52;45.63;99938.35;1683002;83;22077;-80
2022/11/16 10:04:54;;;;;;;51.70;22.40;;;;;;;21.53;45.77;99931.67;1671817;83;21911;-83
2022/11/16 10:07:27;;;;;;;49.08;21.37;;;;;;;21.57;45.62;99926.25;1665769;83;21145;-84
2022/11/16 10:10:02;;;;;;;51.55;22.30;;;;;;;21.61;45.56;99929.94;1685778;83;21143;-84
2022/11/16 10:12:51;;;;;;;50.03;21.40;;;;;;;21.65;45.49;99923.95;1685639;83;21067;-88
2022/11/16 10:15:32;;;;;;;44.80;20.85;;;;;;;21.72;45.40;99916.70;1688575;83;21258;-84
2022/11/16 10:18:14;;;;;;;44.08;21.40;;;;;;;21.77;45.29;99905.38;1692309;83;21058;-86
2022/11/16 10:21:08;;;;;;;50.50;22.65;;;;;;;21.84;45.21;99902.03;1680038;83;21151;-83
2022/11/16 10:23:48;;;;;;;47.53;22.67;;;;;;;21.92;45.10;99904.44;1684616;83;21552;-85
2022/11/16 10:26:42;;;;;;;47.33;23.05;;;;;;;22.01;44.93;99902.39;1679005;85;21084;-85
2022/11/16 10:29:36;;;;;;;50.78;24.75;;;;;;;22.10;44.79;99898.34;1679854;83;22050;-84
2022/11/16 10:32:29;;;;;;;40.08;21.27;;;;;;;22.17;44.59;99891.63;1681206;85;21548;-85
2022/11/16 10:35:31;;;;;;;41.98;21.48;;;;;;;22.27;44.47;99890.34;1682038;85;20926;-87
2022/11/16 10:37:59;;;;;;;40.85;21.27;;;;;;;22.37;44.33;99882.89;1691819;83;20942;-85
2022/11/16 10:40:43;;;;;;;40.40;22.80;;;;;;;22.48;44.20;99879.06;1662696;84;21372;-84
2022/11/16 10:43:16;;;;;;;39.92;21.48;;;;;;;22.54;44.10;99875.67;1682429;83;21245;-84
2022/11/16 10:45:51;;;;;;;44.35;22.98;;;;;;;22.61;44.00;99875.08;1662976;83;22014;-84
2022/11/16 10:49:06;;;;;;;46.70;23.77;;;;;;;22.66;43.94;99865.91;1689612;83;21022;-87
2022/11/16 10:51:44;;;;;;;46.42;25.27;;;;;;;22.72;43.84;99864.54;1687933;83;21175;-86
2022/11/16 10:54:15;;;;;;;46.88;24.85;;;;;;;22.79;43.57;99881.16;1650949;83;21119;-85
2022/11/16 10:56:47;;;;;;;45.95;22.85;;;;;;;22.79;43.69;99869.45;1683799;83;21132;-81
2022/11/16 10:59:18;;;;;;;41.90;22.52;;;;;;;22.80;43.82;99873.05;1661760;85;21074;-85
2022/11/16 11:01:56;;;;;;;49.83;22.07;;;;;;;22.81;43.72;99872.70;1622153;85;21113;-85
2022/11/16 11:04:34;;;;;;;44.33;21.75;;;;;;;22.82;43.60;99862.41;1659942;85;21109;-86
2022/11/16 11:07:30;;;;;;;43.52;20.60;;;;;;;22.82;43.74;99855.48;1651554;85;21182;-84
2022/11/16 11:10:04;;;;;;;41.05;20.32;;;;;;;22.83;43.79;99850.17;1652113;85;21100;-82
2022/11/16 11:12:36;;;;;;;42.38;21.50;;;;;;;22.88;43.87;99851.27;1617679;87;21334;-85
2022/11/16 11:15:14;;;;;;;42.38;21.37;;;;;;;22.91;43.92;99846.42;1620556;87;21132;-84
2022/11/16 11:17:49;;;;;;;38.67;20.55;;;;;;;22.95;43.93;99854.25;1658292;85;21097;-85
2022/11/16 11:20:22;;;;;;;41.42;21.90;;;;;;;22.97;43.96;99847.17;1649664;85;21075;-86
2022/11/16 11:23:03;;;;;;;43.52;21.93;;;;;;;22.98;43.99;99839.66;1629598;85;22027;-84
2022/11/16 11:25:34;;;;;;;49.55;23.57;;;;;;;23.00;44.01;99845.67;1654258;85;21643;-84
2022/11/16 11:28:27;;;;;;;45.98;23.67;;;;;;;23.01;43.98;99838.94;1656881;85;21207;-86
2022/11/16 11:31:10;;;;;;;47.15;22.90;;;;;;;23.00;44.00;99833.19;1658083;85;21114;-84
2022/11/16 11:33:41;;;;;;;46.48;24.25;;;;;;;23.01;43.98;99825.06;1652463;85;21089;-85
2022/11/16 11:36:22;;;;;;;44.63;24.05;;;;;;;22.99;43.99;99817.13;1650648;85;21150;-85
2022/11/16 11:39:00;;;;;;;45.17;24.55;;;;;;;22.97;43.99;99813.88;1651724;85;21138;-86
2022/11/16 11:41:39;;;;;;;44.15;24.75;;;;;;;22.97;44.00;99824.98;1649538;85;21186;-85
2022/11/16 11:44:17;;;;;;;45.52;23.00;;;;;;;22.94;44.01;99819.34;1650462;85;22295;-85
2022/11/16 11:47:19;;;;;;;49.73;24.65;;;;;;;22.89;44.04;99819.03;1648713;84;21126;-86
2022/11/16 11:49:51;;;;;;;46.23;23.45;;;;;;;22.88;44.02;99816.59;1634941;85;22026;-89
2022/11/16 11:52:28;;;;;;;43.95;23.85;;;;;;;22.85;44.02;99815.94;1655024;85;21114;-90
2022/11/16 11:55:01;;;;;;;45.73;22.60;;;;;;;22.82;44.00;99806.95;1644379;85;21082;-85
2022/11/16 12:06:58;;;;;;;43.83;19.80;;;;;;;22.63;45.20;99787.61;1650361;85;21753;-85
2022/11/16 12:10:10;;;;;;;47.20;19.90;;;;;;;22.56;45.07;99781.89;1678588;83;21124;-86
2022/11/16 12:13:08;;;;;;;42.33;20.08;;;;;;;22.52;45.02;99785.14;1683909;83;21595;-86
2022/11/16 12:16:31;;;;;;;46.42;20.17;;;;;;;22.48;44.95;99784.25;1683926;83;21551;-85
2022/11/16 12:19:11;;;;;;;41.88;20.08;;;;;;;22.45;44.87;99782.16;1685518;83;22489;-83
2022/11/16 12:22:01;;;;;;;34.23;19.60;;;;;;;22.43;44.92;99786.46;1676657;83;21159;-84
2022/11/16 12:24:36;;;;;;;41.35;21.80;;;;;;;22.39;44.90;99773.09;1692159;82;21060;-85